Time,TemperatureF,DewpointF,PressureIn,WindDirection,WindDirectionDegrees,WindSpeedMPH,WindSpeedGustMPH,Humidity,HourlyPrecipIn,Conditions,Clouds,dailyrainin,SoftwareType,DateUTC
2013-10-27 00:00:00,36.1,2.8,17.72,NNW,338,0.0,0.0,24,0.00,,---,0.00,VWS V12.07,2013-10-27 04:00:00,
2013-10-27 00:05:00,36.1,2.8,17.72,NNW,338,0.0,0.0,24,0.00,,---,0.00,VWS V12.07,2013-10-27 04:05:00,
2013-10-27 00:10:00,36.1,2.8,17.72,NNW,338,0.0,0.0,24,0.00,,---,0.00,VWS V12.07,2013-10-27 04:10:00,
2013-10-27 00:15:00,35.8,2.5,17.72,NNW,338,0.0,0.0,24,0.00,,---,0.00,VWS V12.07,2013-10-27 04:15:00,
2013-10-27 00:20:00,35.8,2.5,17.72,NNW,338,0.0,0.0,24,0.00,,---,0.00,VWS V12.07,2013-10-27 04:20:00,
2013-10-27 00:25:00,35.8,2.5,17.72,NNW,338,0.0,0.0,24,0.00,,---,0.00,VWS V12.07,2013-10-27 04:25:00,
2013-10-27 00:30:00,35.6,2.4,17.72,NNW,338,0.0,0.0,24,0.00,,---,0.00,VWS V12.07,2013-10-27 04:30:00,
2013-10-27 00:35:00,35.4,3.1,17.72,NNW,338,0.0,0.0,25,0.00,,---,0.00,VWS V12.07,2013-10-27 04:35:00,
2013-10-27 00:40:00,35.1,2.8,17.72,NNW,338,0.0,0.0,25,0.00,,---,0.00,VWS V12.07,2013-10-27 04:40:00,
2013-10-27 00:45:00,34.5,2.3,17.72,NNW,338,0.0,0.0,25,0.00,,---,0.00,VWS V12.07,2013-10-27 04:45:00,
2013-10-27 00:50:00,34.2,2.0,17.72,NNW,338,0.0,0.0,25,0.00,,---,0.00,VWS V12.07,2013-10-27 04:50:00,
2013-10-27 00:55:00,33.8,1.7,17.72,NNW,338,0.0,0.0,25,0.00,,---,0.00,VWS V12.07,2013-10-27 04:55:00,
2013-10-27 01:00:00,33.3,1.2,17.72,NNW,338,0.0,0.0,25,0.00,,---,0.00,VWS V12.07,2013-10-27 05:00:00,
2013-10-27 01:05:00,33.1,1.1,17.72,NNW,338,0.0,0.0,25,0.00,,---,0.00,VWS V12.07,2013-10-27 05:05:00,
2013-10-27 01:10:00,32.9,0.9,17.72,NNW,338,0.0,0.0,25,0.00,,---,0.00,VWS V12.07,2013-10-27 05:10:00,
2013-10-27 01:15:00,32.7,0.8,17.72,NNW,338,0.0,0.0,25,0.00,,---,0.00,VWS V12.07,2013-10-27 05:15:00,
2013-10-27 01:20:00,32.9,0.9,17.72,NNW,338,0.0,0.0,25,0.00,,---,0.00,VWS V12.07,2013-10-27 05:20:00,
2013-10-27 01:25:00,32.9,0.9,17.72,NNW,338,0.0,0.0,25,0.00,,---,0.00,VWS V12.07,2013-10-27 05:25:00,
2013-10-27 01:30:00,32.5,0.6,17.72,NNW,338,0.0,0.0,25,0.00,,---,0.00,VWS V12.07,2013-10-27 05:30:00,
2013-10-27 01:35:00,32.4,0.5,17.72,NNW,338,0.0,0.0,25,0.00,,---,0.00,VWS V12.07,2013-10-27 05:35:00,
2013-10-27 01:40:00,32.4,0.5,17.72,NNW,338,0.0,0.0,25,0.00,,---,0.00,VWS V12.07,2013-10-27 05:40:00,
2013-10-27 01:45:00,32.2,0.3,17.72,NNW,338,0.0,0.0,25,0.00,,---,0.00,VWS V12.07,2013-10-27 05:45:00,
2013-10-27 01:50:00,32.0,0.2,17.72,NNW,338,0.0,0.0,25,0.00,,---,0.00,VWS V12.07,2013-10-27 05:50:00,
2013-10-27 01:55:00,31.6,-0.1,17.72,NNW,338,0.0,0.0,25,0.00,,---,0.00,VWS V12.07,2013-10-27 05:55:00,
2013-10-27 02:00:00,31.1,-0.6,17.72,NNW,338,0.0,0.0,25,0.00,,---,0.00,VWS V12.07,2013-10-27 06:00:00,
2013-10-27 02:05:00,31.1,-0.6,17.72,NNW,338,0.0,0.0,25,0.00,,---,0.00,VWS V12.07,2013-10-27 06:05:00,
2013-10-27 02:10:00,31.1,-0.6,17.72,NNW,338,0.0,0.0,25,0.00,,---,0.00,VWS V12.07,2013-10-27 06:10:00,
2013-10-27 02:15:00,30.9,-0.8,17.72,NNW,338,0.0,0.0,25,0.00,,---,0.00,VWS V12.07,2013-10-27 06:15:00,
2013-10-27 02:20:00,30.7,-0.9,17.72,NNW,338,0.0,0.0,25,0.00,,---,0.00,VWS V12.07,2013-10-27 06:20:00,
2013-10-27 02:25:00,30.9,-0.8,17.72,NNW,338,0.0,0.0,25,0.00,,---,0.00,VWS V12.07,2013-10-27 06:25:00,
2013-10-27 02:30:00,30.9,-0.8,17.72,NNW,338,0.0,0.0,25,0.00,,---,0.00,VWS V12.07,2013-10-27 06:30:00,
2013-10-27 02:35:00,30.7,-0.9,17.72,NNW,338,0.0,0.0,25,0.00,,---,0.00,VWS V12.07,2013-10-27 06:35:00,
2013-10-27 02:45:00,30.2,-1.4,17.72,NNW,338,0.0,0.0,25,0.00,,---,0.00,VWS V12.07,2013-10-27 06:45:00,
2013-10-27 02:50:00,30.2,1.0,17.72,NNW,338,0.0,0.0,28,0.00,,---,0.00,VWS V12.07,2013-10-27 06:50:00,
2013-10-27 02:55:00,30.6,1.4,17.72,NNW,338,0.0,0.0,28,0.00,,---,0.00,VWS V12.07,2013-10-27 06:55:00,
2013-10-27 03:00:00,30.6,1.4,17.72,NNW,338,0.0,0.0,28,0.00,,---,0.00,VWS V12.07,2013-10-27 07:00:00,
2013-10-27 03:05:00,30.2,-1.4,17.72,NNW,338,0.0,0.0,25,0.00,,---,0.00,VWS V12.07,2013-10-27 07:05:00,
2013-10-27 03:10:00,29.8,-1.7,17.72,NNW,338,0.0,0.0,25,0.00,,---,0.00,VWS V12.07,2013-10-27 07:10:00,
2013-10-27 03:15:00,29.5,0.4,17.72,NNW,338,0.0,0.0,28,0.00,,---,0.00,VWS V12.07,2013-10-27 07:15:00,
2013-10-27 03:20:00,29.3,0.2,17.72,NNW,338,0.0,0.0,28,0.00,,---,0.00,VWS V12.07,2013-10-27 07:20:00,
2013-10-27 03:25:00,29.5,0.4,17.72,NNW,338,0.0,0.0,28,0.00,,---,0.00,VWS V12.07,2013-10-27 07:25:00,
2013-10-27 03:30:00,29.8,0.7,17.72,NNW,338,0.0,0.0,28,0.00,,---,0.00,VWS V12.07,2013-10-27 07:30:00,
2013-10-27 03:35:00,29.8,0.7,17.72,NNW,338,0.0,0.0,28,0.00,,---,0.00,VWS V12.07,2013-10-27 07:35:00,
2013-10-27 03:40:00,29.8,0.7,17.72,NNW,338,0.0,0.0,28,0.00,,---,0.00,VWS V12.07,2013-10-27 07:40:00,
2013-10-27 03:45:00,30.0,0.9,17.72,NNW,338,0.0,0.0,28,0.00,,---,0.00,VWS V12.07,2013-10-27 07:45:00,
2013-10-27 03:50:00,30.4,2.7,17.72,NNW,338,0.0,0.0,30,0.00,,---,0.00,VWS V12.07,2013-10-27 07:50:00,
2013-10-27 03:55:00,30.9,3.1,17.72,NNW,338,0.0,0.0,30,0.00,,---,0.00,VWS V12.07,2013-10-27 07:55:00,
2013-10-27 04:00:00,30.7,1.5,17.72,NNW,338,0.0,0.0,28,0.00,,---,0.00,VWS V12.07,2013-10-27 08:00:00,
2013-10-27 04:05:00,30.6,1.4,17.72,NNW,338,0.0,0.0,28,0.00,,---,0.00,VWS V12.07,2013-10-27 08:05:00,
2013-10-27 04:10:00,30.6,2.8,17.72,NNW,338,0.0,0.0,30,0.00,,---,0.00,VWS V12.07,2013-10-27 08:10:00,
2013-10-27 04:15:00,30.6,1.4,17.72,NNW,338,0.0,0.0,28,0.00,,---,0.00,VWS V12.07,2013-10-27 08:15:00,
2013-10-27 04:20:00,29.7,0.6,17.72,NNW,338,0.0,0.0,28,0.00,,---,0.00,VWS V12.07,2013-10-27 08:20:00,
2013-10-27 04:25:00,29.1,0.1,17.72,NNW,338,0.0,0.0,28,0.00,,---,0.00,VWS V12.07,2013-10-27 08:25:00,
2013-10-27 04:30:00,29.1,1.6,17.72,NNW,338,0.0,0.0,30,0.00,,---,0.00,VWS V12.07,2013-10-27 08:30:00,
2013-10-27 04:35:00,29.5,1.9,17.72,NNW,338,0.0,0.0,30,0.00,,---,0.00,VWS V12.07,2013-10-27 08:35:00,
2013-10-27 04:40:00,29.7,2.0,17.72,NNW,338,0.0,0.0,30,0.00,,---,0.00,VWS V12.07,2013-10-27 08:40:00,
2013-10-27 04:45:00,29.8,2.2,17.72,NNW,338,0.0,0.0,30,0.00,,---,0.00,VWS V12.07,2013-10-27 08:45:00,
2013-10-27 04:50:00,30.2,3.2,17.72,NNW,338,0.0,0.0,31,0.00,,---,0.00,VWS V12.07,2013-10-27 08:50:00,
2013-10-27 04:55:00,30.2,3.2,17.72,NNW,338,0.0,0.0,31,0.00,,---,0.00,VWS V12.07,2013-10-27 08:55:00,
2013-10-27 05:00:00,30.2,3.2,17.72,NNW,338,0.0,0.0,31,0.00,,---,0.00,VWS V12.07,2013-10-27 09:00:00,
2013-10-27 05:05:00,30.2,2.5,17.72,NNW,338,0.0,0.0,30,0.00,,---,0.00,VWS V12.07,2013-10-27 09:05:00,
2013-10-27 05:10:00,29.7,2.0,17.72,NNW,338,0.0,0.0,30,0.00,,---,0.00,VWS V12.07,2013-10-27 09:10:00,
2013-10-27 05:15:00,29.1,1.6,17.72,NNW,338,0.0,0.0,30,0.00,,---,0.00,VWS V12.07,2013-10-27 09:15:00,
2013-10-27 05:20:00,28.8,1.2,17.72,NNW,338,0.0,0.0,30,0.00,,---,0.00,VWS V12.07,2013-10-27 09:20:00,
2013-10-27 05:25:00,28.9,2.1,17.72,NNW,338,0.0,0.0,31,0.00,,---,0.00,VWS V12.07,2013-10-27 09:25:00,
2013-10-27 05:30:00,29.3,2.4,17.72,NNW,338,0.0,0.0,31,0.00,,---,0.00,VWS V12.07,2013-10-27 09:30:00,
2013-10-27 05:35:00,29.5,2.6,17.72,NNW,338,0.0,0.0,31,0.00,,---,0.00,VWS V12.07,2013-10-27 09:35:00,
2013-10-27 05:40:00,29.5,2.6,17.72,NNW,338,0.0,0.0,31,0.00,,---,0.00,VWS V12.07,2013-10-27 09:40:00,
2013-10-27 05:45:00,28.8,1.2,17.72,NNW,338,0.0,0.0,30,0.00,,---,0.00,VWS V12.07,2013-10-27 09:45:00,
2013-10-27 05:50:00,27.9,1.2,17.72,NNW,338,0.0,0.0,31,0.00,,---,0.00,VWS V12.07,2013-10-27 09:50:00,
2013-10-27 05:55:00,27.5,0.8,17.72,NNW,338,0.0,0.0,31,0.00,,---,0.00,VWS V12.07,2013-10-27 09:55:00,
2013-10-27 06:00:00,27.1,0.5,17.72,NNW,338,0.0,0.0,31,0.00,,---,0.00,VWS V12.07,2013-10-27 10:00:00,
2013-10-27 06:05:00,27.3,0.7,17.72,NNW,338,0.0,0.0,31,0.00,,---,0.00,VWS V12.07,2013-10-27 10:05:00,
2013-10-27 06:10:00,27.3,0.7,17.72,NNW,338,0.0,0.0,31,0.00,,---,0.00,VWS V12.07,2013-10-27 10:10:00,
2013-10-27 06:15:00,27.3,0.7,17.72,NNW,338,0.0,0.0,31,0.00,,---,0.00,VWS V12.07,2013-10-27 10:15:00,
2013-10-27 06:20:00,27.7,1.0,17.72,NNW,338,0.0,0.0,31,0.00,,---,0.00,VWS V12.07,2013-10-27 10:20:00,
2013-10-27 06:25:00,28.2,1.5,17.72,NNW,338,0.0,0.0,31,0.00,,---,0.00,VWS V12.07,2013-10-27 10:25:00,
2013-10-27 06:30:00,28.2,1.5,17.72,NNW,338,0.0,0.0,31,0.00,,---,0.00,VWS V12.07,2013-10-27 10:30:00,
2013-10-27 06:35:00,28.2,1.5,17.72,NNW,338,0.0,0.0,31,0.00,,---,0.00,VWS V12.07,2013-10-27 10:35:00,
2013-10-27 06:40:00,28.0,1.3,17.72,NNW,338,0.0,0.0,31,0.00,,---,0.00,VWS V12.07,2013-10-27 10:40:00,
2013-10-27 06:45:00,28.4,2.3,17.72,NNW,338,0.0,0.0,32,0.00,,---,0.00,VWS V12.07,2013-10-27 10:45:00,
2013-10-27 06:50:00,28.8,2.0,17.72,NNW,338,0.0,0.0,31,0.00,,---,0.00,VWS V12.07,2013-10-27 10:50:00,
2013-10-27 06:55:00,28.8,2.0,17.72,NNW,338,0.0,0.0,31,0.00,,---,0.00,VWS V12.07,2013-10-27 10:55:00,
2013-10-27 07:00:00,28.6,1.8,17.72,NNW,338,0.0,0.0,31,0.00,,---,0.00,VWS V12.07,2013-10-27 11:00:00,
2013-10-27 07:05:00,28.6,1.8,17.72,NNW,338,0.0,0.0,31,0.00,,---,0.00,VWS V12.07,2013-10-27 11:05:00,
2013-10-27 07:10:00,28.6,1.8,17.72,NNW,338,0.0,0.0,31,0.00,,---,0.00,VWS V12.07,2013-10-27 11:10:00,
2013-10-27 07:15:00,28.4,1.6,17.72,NNW,338,0.0,0.0,31,0.00,,---,0.00,VWS V12.07,2013-10-27 11:15:00,
2013-10-27 07:20:00,28.0,1.3,17.72,NNW,338,0.0,0.0,31,0.00,,---,0.00,VWS V12.07,2013-10-27 11:20:00,
2013-10-27 07:25:00,28.0,1.3,17.72,NNW,338,0.0,0.0,31,0.00,,---,0.00,VWS V12.07,2013-10-27 11:25:00,
2013-10-27 07:30:00,27.9,1.8,17.72,NNW,338,0.0,0.0,32,0.00,,---,0.00,VWS V12.07,2013-10-27 11:30:00,
2013-10-27 07:35:00,28.0,2.0,17.72,NNW,338,0.0,0.0,32,0.00,,---,0.00,VWS V12.07,2013-10-27 11:35:00,
2013-10-27 07:40:00,28.6,2.5,17.72,NNW,338,0.0,0.0,32,0.00,,---,0.00,VWS V12.07,2013-10-27 11:40:00,
2013-10-27 07:45:00,28.6,1.8,17.72,NNW,338,0.0,0.0,31,0.00,,---,0.00,VWS V12.07,2013-10-27 11:45:00,
2013-10-27 07:50:00,28.2,2.2,17.72,NNW,338,0.0,0.0,32,0.00,,---,0.00,VWS V12.07,2013-10-27 11:50:00,
2013-10-27 07:55:00,27.9,1.8,17.72,NNW,338,0.0,0.0,32,0.00,,---,0.00,VWS V12.07,2013-10-27 11:55:00,
2013-10-27 08:00:00,27.9,1.8,17.72,NNW,338,0.0,0.0,32,0.00,,---,0.00,VWS V12.07,2013-10-27 12:00:00,
2013-10-27 08:05:00,27.9,1.8,17.72,NNW,338,0.0,0.0,32,0.00,,---,0.00,VWS V12.07,2013-10-27 12:05:00,
2013-10-27 08:10:00,28.4,2.3,17.72,NNW,338,0.0,0.0,32,0.00,,---,0.00,VWS V12.07,2013-10-27 12:10:00,
2013-10-27 08:15:00,28.2,2.2,17.72,NNW,338,0.0,0.0,32,0.00,,---,0.00,VWS V12.07,2013-10-27 12:15:00,
2013-10-27 08:20:00,27.7,1.0,17.72,NNW,338,0.0,0.0,31,0.00,,---,0.00,VWS V12.07,2013-10-27 12:20:00,
2013-10-27 08:25:00,27.5,1.5,17.72,NNW,338,0.0,0.0,32,0.00,,---,0.00,VWS V12.07,2013-10-27 12:25:00,
2013-10-27 08:30:00,28.0,2.0,17.72,NNW,338,0.0,0.0,32,0.00,,---,0.00,VWS V12.07,2013-10-27 12:30:00,
2013-10-27 08:35:00,28.4,2.3,17.72,NNW,338,0.0,0.0,32,0.00,,---,0.00,VWS V12.07,2013-10-27 12:35:00,
2013-10-27 08:40:00,28.6,2.5,17.72,NNW,338,0.0,0.0,32,0.00,,---,0.00,VWS V12.07,2013-10-27 12:40:00,
2013-10-27 08:45:00,28.9,2.8,17.72,NNW,338,0.0,0.0,32,0.00,,---,0.00,VWS V12.07,2013-10-27 12:45:00,
2013-10-27 08:50:00,29.3,3.1,17.72,NNW,338,0.0,0.0,32,0.00,,---,0.00,VWS V12.07,2013-10-27 12:50:00,
2013-10-27 08:55:00,30.2,3.9,17.72,NNW,338,0.0,0.0,32,0.00,,---,0.00,VWS V12.07,2013-10-27 12:55:00,
2013-10-27 09:00:00,30.7,4.4,17.72,NNW,338,0.0,0.0,32,0.00,,---,0.00,VWS V12.07,2013-10-27 13:00:00,
2013-10-27 09:05:00,31.3,4.9,17.72,NNW,338,0.0,0.0,32,0.00,,---,0.00,VWS V12.07,2013-10-27 13:05:00,
2013-10-27 09:10:00,32.0,5.5,17.72,NNW,338,0.0,0.0,32,0.00,,---,0.00,VWS V12.07,2013-10-27 13:10:00,
2013-10-27 09:15:00,32.7,6.1,17.72,NNW,338,0.0,0.0,32,0.00,,---,0.00,VWS V12.07,2013-10-27 13:15:00,
2013-10-27 09:20:00,33.3,6.6,17.72,NNW,338,0.0,0.0,32,0.00,,---,0.00,VWS V12.07,2013-10-27 13:20:00,
2013-10-27 09:25:00,33.6,6.9,17.72,NNW,338,0.0,0.0,32,0.00,,---,0.00,VWS V12.07,2013-10-27 13:25:00,
2013-10-27 09:30:00,34.2,7.4,17.72,NNW,338,0.0,0.0,32,0.00,,---,0.00,VWS V12.07,2013-10-27 13:30:00,
2013-10-27 09:35:00,34.9,8.0,17.72,NNW,331,0.0,0.0,32,0.00,,---,0.00,VWS V12.07,2013-10-27 13:35:00,
2013-10-27 09:40:00,35.6,8.7,17.72,NNW,331,0.0,0.0,32,0.00,,---,0.00,VWS V12.07,2013-10-27 13:40:00,
2013-10-27 09:45:00,36.1,9.1,17.72,NNW,331,0.0,0.0,32,0.00,,---,0.00,VWS V12.07,2013-10-27 13:45:00,
2013-10-27 09:50:00,36.7,9.6,17.72,NW,310,0.0,0.0,32,0.00,,---,0.00,VWS V12.07,2013-10-27 13:50:00,
2013-10-27 09:55:00,36.9,9.8,17.72,WSW,249,0.0,0.0,32,0.00,,---,0.00,VWS V12.07,2013-10-27 13:55:00,
2013-10-27 10:00:00,37.4,10.2,17.72,WSW,249,0.0,0.0,32,0.00,,---,0.00,VWS V12.07,2013-10-27 14:00:00,
2013-10-27 10:05:00,38.1,11.6,17.72,WSW,249,0.0,0.0,33,0.00,,---,0.00,VWS V12.07,2013-10-27 14:05:00,
2013-10-27 10:10:00,39.0,12.4,17.72,WSW,249,0.0,0.0,33,0.00,,---,0.00,VWS V12.07,2013-10-27 14:10:00,
2013-10-27 10:15:00,39.9,13.2,17.72,WSW,249,0.0,0.0,33,0.00,,---,0.00,VWS V12.07,2013-10-27 14:15:00,
2013-10-27 10:20:00,40.8,14.0,17.72,SW,228,0.0,0.0,33,0.00,,---,0.00,VWS V12.07,2013-10-27 14:20:00,
2013-10-27 10:25:00,41.7,14.1,17.72,SW,228,0.0,0.0,32,0.00,,---,0.00,VWS V12.07,2013-10-27 14:25:00,
2013-10-27 10:30:00,43.0,15.2,17.72,SW,228,0.0,0.0,32,0.00,,---,0.00,VWS V12.07,2013-10-27 14:30:00,
2013-10-27 10:35:00,43.7,15.8,17.72,SW,228,0.0,0.0,32,0.00,,---,0.00,VWS V12.07,2013-10-27 14:35:00,
2013-10-27 10:40:00,44.6,16.6,17.72,SW,228,0.0,0.0,32,0.00,,---,0.00,VWS V12.07,2013-10-27 14:40:00,
2013-10-27 10:45:00,45.5,17.4,17.72,SW,228,0.0,0.0,32,0.00,,---,0.00,VWS V12.07,2013-10-27 14:45:00,
2013-10-27 10:50:00,46.0,16.4,17.72,SW,228,0.0,0.0,30,0.00,,---,0.00,VWS V12.07,2013-10-27 14:50:00,
2013-10-27 10:55:00,47.7,18.5,17.72,SW,228,0.0,0.0,31,0.00,,---,0.00,VWS V12.07,2013-10-27 14:55:00,
2013-10-27 11:00:00,48.7,17.9,17.72,SW,227,0.0,0.0,29,0.00,,---,0.00,VWS V12.07,2013-10-27 15:00:00,
2013-10-27 11:05:00,50.5,17.8,17.72,WSW,248,0.0,0.0,27,0.00,,---,0.00,VWS V12.07,2013-10-27 15:05:00,
2013-10-27 11:10:00,51.8,18.0,17.72,WSW,250,0.0,0.0,26,0.00,,---,0.00,VWS V12.07,2013-10-27 15:10:00,
2013-10-27 11:15:00,52.3,15.7,17.72,WSW,237,0.0,0.0,23,0.00,,---,0.00,VWS V12.07,2013-10-27 15:15:00,
2013-10-27 11:20:00,54.0,13.8,17.72,WNW,294,0.0,3.6,20,0.00,,---,0.00,VWS V12.07,2013-10-27 15:20:00,
2013-10-27 11:25:00,56.8,16.2,17.72,West,266,0.0,0.0,20,0.00,,---,0.00,VWS V12.07,2013-10-27 15:25:00,
2013-10-27 11:30:00,58.5,16.4,17.72,West,274,0.0,0.0,19,0.00,,---,0.00,VWS V12.07,2013-10-27 15:30:00,
2013-10-27 11:35:00,59.2,17.0,17.72,WNW,285,0.0,0.0,19,0.00,,---,0.00,VWS V12.07,2013-10-27 15:35:00,
2013-10-27 11:40:00,57.9,15.9,17.72,WSW,245,0.0,0.0,19,0.00,,---,0.00,VWS V12.07,2013-10-27 15:40:00,
2013-10-27 11:45:00,57.2,15.3,17.72,NW,311,6.7,10.1,19,0.00,,---,0.00,VWS V12.07,2013-10-27 15:45:00,
2013-10-27 11:50:00,56.3,15.8,17.72,WSW,245,5.8,8.1,20,0.00,,---,0.00,VWS V12.07,2013-10-27 15:50:00,
2013-10-27 11:55:00,55.6,15.2,17.72,SW,227,0.0,6.7,20,0.00,,---,0.00,VWS V12.07,2013-10-27 15:55:00,
2013-10-27 12:00:00,55.2,14.9,17.72,West,274,0.0,0.0,20,0.00,,---,0.00,VWS V12.07,2013-10-27 16:00:00,
2013-10-27 12:05:00,55.4,15.0,17.72,SSW,213,0.0,0.0,20,0.00,,---,0.00,VWS V12.07,2013-10-27 16:05:00,
2013-10-27 12:10:00,55.8,15.3,17.72,SW,236,0.0,0.0,20,0.00,,---,0.00,VWS V12.07,2013-10-27 16:10:00,
2013-10-27 12:15:00,56.8,16.2,17.72,WNW,295,2.7,2.7,20,0.00,,---,0.00,VWS V12.07,2013-10-27 16:15:00,
2013-10-27 12:20:00,59.0,16.8,17.72,West,277,7.6,8.3,19,0.00,,---,0.00,VWS V12.07,2013-10-27 16:20:00,
2013-10-27 12:25:00,59.7,17.4,17.72,WNW,283,4.5,8.1,19,0.00,,---,0.00,VWS V12.07,2013-10-27 16:25:00,
2013-10-27 12:30:00,60.1,17.7,17.72,NW,310,5.8,8.7,19,0.00,,---,0.00,VWS V12.07,2013-10-27 16:30:00,
2013-10-27 12:35:00,60.4,18.0,17.72,West,262,7.6,7.6,19,0.00,,---,0.00,VWS V12.07,2013-10-27 16:35:00,
2013-10-27 12:40:00,58.3,16.2,17.72,West,280,5.8,10.5,19,0.00,,---,0.00,VWS V12.07,2013-10-27 16:40:00,
2013-10-27 12:45:00,57.4,15.5,17.72,WSW,254,7.6,8.3,19,0.00,,---,0.00,VWS V12.07,2013-10-27 16:45:00,
2013-10-27 12:50:00,57.2,15.3,17.72,WSW,237,2.2,7.6,19,0.00,,---,0.00,VWS V12.07,2013-10-27 16:50:00,
2013-10-27 12:55:00,57.4,15.5,17.72,WNW,284,3.1,10.5,19,0.00,,---,0.00,VWS V12.07,2013-10-27 16:55:00,
2013-10-27 13:00:00,57.9,15.9,17.72,West,279,6.7,6.7,19,0.00,,---,0.00,VWS V12.07,2013-10-27 17:00:00,
2013-10-27 13:05:00,57.6,15.6,17.72,NW,322,5.4,10.5,19,0.00,,---,0.00,VWS V12.07,2013-10-27 17:05:00,
2013-10-27 13:10:00,57.7,15.8,17.72,West,280,5.4,8.7,19,0.00,,---,0.00,VWS V12.07,2013-10-27 17:10:00,
2013-10-27 13:15:00,57.7,15.8,17.72,NNW,339,0.0,6.3,19,0.00,,---,0.00,VWS V12.07,2013-10-27 17:15:00,
2013-10-27 13:20:00,58.5,16.4,17.72,NW,321,0.0,2.2,19,0.00,,---,0.00,VWS V12.07,2013-10-27 17:20:00,
2013-10-27 13:25:00,59.0,16.8,17.72,West,262,5.4,8.7,19,0.00,,---,0.00,VWS V12.07,2013-10-27 17:25:00,
2013-10-27 13:30:00,59.5,17.3,17.72,SW,225,5.8,11.0,19,0.00,,---,0.00,VWS V12.07,2013-10-27 17:30:00,
2013-10-27 13:35:00,59.2,17.0,17.72,SW,229,0.0,6.3,19,0.00,,---,0.00,VWS V12.07,2013-10-27 17:35:00,
2013-10-27 13:40:00,59.9,17.6,17.72,WSW,253,7.6,7.6,19,0.00,,---,0.00,VWS V12.07,2013-10-27 17:40:00,
2013-10-27 13:45:00,59.9,17.6,17.72,WNW,282,7.6,10.5,19,0.00,,---,0.00,VWS V12.07,2013-10-27 17:45:00,
2013-10-27 13:50:00,59.5,17.3,17.72,WNW,282,6.3,10.1,19,0.00,,---,0.00,VWS V12.07,2013-10-27 17:50:00,
2013-10-27 13:55:00,59.2,17.0,17.72,WSW,241,5.4,5.4,19,0.00,,---,0.00,VWS V12.07,2013-10-27 17:55:00,
2013-10-27 14:00:00,59.4,17.1,17.72,SW,223,7.6,7.6,19,0.00,,---,0.00,VWS V12.07,2013-10-27 18:00:00,
2013-10-27 14:05:00,59.7,17.4,17.72,WSW,247,3.6,8.3,19,0.00,,---,0.00,VWS V12.07,2013-10-27 18:05:00,
2013-10-27 14:10:00,59.7,17.4,17.72,WSW,258,0.0,8.1,19,0.00,,---,0.00,VWS V12.07,2013-10-27 18:10:00,
2013-10-27 14:15:00,59.9,17.6,17.72,WNW,285,5.4,11.0,19,0.00,,---,0.00,VWS V12.07,2013-10-27 18:15:00,
2013-10-27 14:20:00,60.6,18.2,17.72,West,264,5.8,7.6,19,0.00,,---,0.00,VWS V12.07,2013-10-27 18:20:00,
2013-10-27 14:25:00,61.5,18.9,17.72,WSW,255,5.8,8.1,19,0.00,,---,0.00,VWS V12.07,2013-10-27 18:25:00,
2013-10-27 14:30:00,61.3,18.8,17.72,NW,306,4.0,4.0,19,0.00,,---,0.00,VWS V12.07,2013-10-27 18:30:00,
2013-10-27 14:35:00,60.4,18.0,17.72,West,280,5.8,11.0,19,0.00,,---,0.00,VWS V12.07,2013-10-27 18:35:00,
2013-10-27 14:40:00,60.4,18.0,17.72,SSW,212,4.0,7.6,19,0.00,,---,0.00,VWS V12.07,2013-10-27 18:40:00,
2013-10-27 14:45:00,60.6,18.2,17.72,SW,223,0.0,0.0,19,0.00,,---,0.00,VWS V12.07,2013-10-27 18:45:00,
2013-10-27 14:50:00,61.0,18.5,17.72,WSW,249,7.2,9.2,19,0.00,,---,0.00,VWS V12.07,2013-10-27 18:50:00,
2013-10-27 14:55:00,61.7,19.0,17.72,WSW,242,6.3,6.3,19,0.00,,---,0.00,VWS V12.07,2013-10-27 18:55:00,
2013-10-27 15:00:00,62.6,18.5,17.72,SSW,212,6.7,8.7,18,0.00,,---,0.00,VWS V12.07,2013-10-27 19:00:00,
2013-10-27 15:05:00,62.2,19.5,17.72,South,185,3.6,8.3,19,0.00,,---,0.00,VWS V12.07,2013-10-27 19:05:00,
2013-10-27 15:10:00,61.3,18.8,17.72,NW,308,5.4,11.0,19,0.00,,---,0.00,VWS V12.07,2013-10-27 19:10:00,
2013-10-27 15:20:00,62.1,19.3,17.72,NW,316,0.0,0.0,19,0.00,,---,0.00,VWS V12.07,2013-10-27 19:20:00,
2013-10-27 15:25:00,63.5,19.3,17.72,SW,227,5.4,7.6,18,0.00,,---,0.00,VWS V12.07,2013-10-27 19:25:00,
2013-10-27 15:30:00,63.0,18.8,17.72,WSW,251,8.1,10.5,18,0.00,,---,0.00,VWS V12.07,2013-10-27 19:30:00,
2013-10-27 15:35:00,62.1,19.3,17.72,SW,232,4.0,10.5,19,0.00,,---,0.00,VWS V12.07,2013-10-27 19:35:00,
2013-10-27 15:40:00,62.2,19.5,17.72,West,262,3.1,8.7,19,0.00,,---,0.00,VWS V12.07,2013-10-27 19:40:00,
2013-10-27 15:45:00,63.0,18.8,17.72,WNW,297,0.0,6.3,18,0.00,,---,0.00,VWS V12.07,2013-10-27 19:45:00,
2013-10-27 15:50:00,62.4,19.6,17.72,West,270,8.3,10.5,19,0.00,,---,0.00,VWS V12.07,2013-10-27 19:50:00,
2013-10-27 15:55:00,63.0,18.8,17.72,SW,236,6.3,8.3,18,0.00,,---,0.00,VWS V12.07,2013-10-27 19:55:00,
2013-10-27 16:00:00,62.1,19.3,17.72,SW,229,0.0,7.6,19,0.00,,---,0.00,VWS V12.07,2013-10-27 20:00:00,
2013-10-27 16:05:00,62.6,18.5,17.72,WSW,251,5.4,6.3,18,0.00,,---,0.00,VWS V12.07,2013-10-27 20:05:00,
2013-10-27 16:10:00,62.2,19.5,17.72,West,273,8.1,10.5,19,0.00,,---,0.00,VWS V12.07,2013-10-27 20:10:00,
2013-10-27 16:15:00,62.2,19.5,17.72,WNW,284,2.2,9.6,19,0.00,,---,0.00,VWS V12.07,2013-10-27 20:15:00,
2013-10-27 16:20:00,61.5,18.9,17.72,WSW,253,0.0,5.8,19,0.00,,---,0.00,VWS V12.07,2013-10-27 20:20:00,
2013-10-27 16:25:00,61.2,18.6,17.72,WSW,254,5.4,8.7,19,0.00,,---,0.00,VWS V12.07,2013-10-27 20:25:00,
2013-10-27 16:30:00,60.3,17.9,17.72,West,262,5.4,12.3,19,0.00,,---,0.00,VWS V12.07,2013-10-27 20:30:00,
2013-10-27 16:35:00,60.1,17.7,17.72,WNW,287,6.7,10.1,19,0.00,,---,0.00,VWS V12.07,2013-10-27 20:35:00,
2013-10-27 16:40:00,59.7,17.4,17.72,West,260,4.0,4.0,19,0.00,,---,0.00,VWS V12.07,2013-10-27 20:40:00,
2013-10-27 16:45:00,59.5,17.3,17.72,SW,235,6.7,6.7,19,0.00,,---,0.00,VWS V12.07,2013-10-27 20:45:00,
2013-10-27 16:50:00,59.7,17.4,17.72,West,277,4.9,6.3,19,0.00,,---,0.00,VWS V12.07,2013-10-27 20:50:00,
2013-10-27 16:55:00,59.5,17.3,17.72,WSW,248,0.0,6.3,19,0.00,,---,0.00,VWS V12.07,2013-10-27 20:55:00,
2013-10-27 17:00:00,59.4,17.1,17.72,WSW,252,5.8,7.6,19,0.00,,---,0.00,VWS V12.07,2013-10-27 21:00:00,
2013-10-27 17:05:00,58.8,16.7,17.72,West,262,3.1,8.3,19,0.00,,---,0.00,VWS V12.07,2013-10-27 21:05:00,
2013-10-27 17:10:00,58.5,16.4,17.72,WSW,247,7.6,8.3,19,0.00,,---,0.00,VWS V12.07,2013-10-27 21:10:00,
2013-10-27 17:15:00,57.9,15.9,17.72,West,259,6.3,8.3,19,0.00,,---,0.00,VWS V12.07,2013-10-27 21:15:00,
2013-10-27 17:20:00,57.4,15.5,17.72,WSW,254,6.3,7.6,19,0.00,,---,0.00,VWS V12.07,2013-10-27 21:20:00,
2013-10-27 17:25:00,57.2,15.3,17.72,WSW,247,6.3,6.3,19,0.00,,---,0.00,VWS V12.07,2013-10-27 21:25:00,
2013-10-27 17:30:00,57.2,15.3,17.72,West,268,0.0,6.3,19,0.00,,---,0.00,VWS V12.07,2013-10-27 21:30:00,
2013-10-27 17:35:00,57.0,16.4,17.72,SW,226,0.0,0.0,20,0.00,,---,0.00,VWS V12.07,2013-10-27 21:35:00,
2013-10-27 17:40:00,56.7,16.1,17.72,NW,304,0.0,0.0,20,0.00,,---,0.00,VWS V12.07,2013-10-27 21:40:00,
2013-10-27 17:45:00,56.3,15.8,17.72,WSW,258,0.0,0.0,20,0.00,,---,0.00,VWS V12.07,2013-10-27 21:45:00,
2013-10-27 17:50:00,55.9,15.5,17.72,SW,219,0.0,0.0,20,0.00,,---,0.00,VWS V12.07,2013-10-27 21:50:00,
2013-10-27 17:55:00,55.6,15.2,17.72,SW,236,4.0,4.9,20,0.00,,---,0.00,VWS V12.07,2013-10-27 21:55:00,
2013-10-27 18:00:00,55.4,15.0,17.72,WSW,247,2.7,6.3,20,0.00,,---,0.00,VWS V12.07,2013-10-27 22:00:00,
2013-10-27 18:05:00,55.0,14.7,17.72,SW,233,2.7,4.0,20,0.00,,---,0.00,VWS V12.07,2013-10-27 22:05:00,
2013-10-27 18:10:00,54.7,14.4,17.72,SSW,202,0.0,3.6,20,0.00,,---,0.00,VWS V12.07,2013-10-27 22:10:00,
2013-10-27 18:15:00,54.3,14.1,17.72,SW,225,6.3,7.6,20,0.00,,---,0.00,VWS V12.07,2013-10-27 22:15:00,
2013-10-27 18:20:00,53.8,13.7,17.72,SW,231,4.0,6.3,20,0.00,,---,0.00,VWS V12.07,2013-10-27 22:20:00,
2013-10-27 18:25:00,53.2,14.3,17.72,SW,231,3.6,5.4,21,0.00,,---,0.00,VWS V12.07,2013-10-27 22:25:00,
2013-10-27 18:30:00,52.9,14.0,17.72,SW,224,2.7,4.9,21,0.00,,---,0.00,VWS V12.07,2013-10-27 22:30:00,
2013-10-27 18:35:00,52.0,13.3,17.72,SW,232,2.2,4.0,21,0.00,,---,0.00,VWS V12.07,2013-10-27 22:35:00,
2013-10-27 18:40:00,50.7,12.2,17.72,WSW,247,2.7,4.0,21,0.00,,---,0.00,VWS V12.07,2013-10-27 22:40:00,
2013-10-27 18:45:00,49.6,11.3,17.72,SW,224,2.7,2.7,21,0.00,,---,0.00,VWS V12.07,2013-10-27 22:45:00,
2013-10-27 18:50:00,48.6,10.4,17.72,SW,225,0.0,0.0,21,0.00,,---,0.00,VWS V12.07,2013-10-27 22:50:00,
2013-10-27 18:55:00,47.3,10.4,17.72,SW,225,0.0,0.0,22,0.00,,---,0.00,VWS V12.07,2013-10-27 22:55:00,
2013-10-27 19:00:00,46.4,9.6,17.72,SW,225,0.0,0.0,22,0.00,,---,0.00,VWS V12.07,2013-10-27 23:00:00,
2013-10-27 19:05:00,45.5,8.9,17.72,SW,225,0.0,0.0,22,0.00,,---,0.00,VWS V12.07,2013-10-27 23:05:00,
2013-10-27 19:10:00,44.8,8.3,17.72,SW,225,0.0,0.0,22,0.00,,---,0.00,VWS V12.07,2013-10-27 23:10:00,
2013-10-27 19:15:00,44.1,8.6,17.72,SW,225,0.0,0.0,23,0.00,,---,0.00,VWS V12.07,2013-10-27 23:15:00,
2013-10-27 19:20:00,43.5,8.2,17.72,SW,225,0.0,0.0,23,0.00,,---,0.00,VWS V12.07,2013-10-27 23:20:00,
2013-10-27 19:25:00,43.2,7.9,17.72,SW,225,0.0,0.0,23,0.00,,---,0.00,VWS V12.07,2013-10-27 23:25:00,
2013-10-27 19:30:00,42.8,7.6,17.72,SW,225,0.0,0.0,23,0.00,,---,0.00,VWS V12.07,2013-10-27 23:30:00,
2013-10-27 19:35:00,42.1,7.0,17.72,SW,225,0.0,0.0,23,0.00,,---,0.00,VWS V12.07,2013-10-27 23:35:00,
2013-10-27 19:40:00,41.2,6.2,17.72,SW,225,0.0,0.0,23,0.00,,---,0.00,VWS V12.07,2013-10-27 23:40:00,
2013-10-27 19:45:00,40.8,5.9,17.72,SW,225,0.0,0.0,23,0.00,,---,0.00,VWS V12.07,2013-10-27 23:45:00,
2013-10-27 19:50:00,40.5,5.6,17.72,SW,225,0.0,0.0,23,0.00,,---,0.00,VWS V12.07,2013-10-27 23:50:00,
2013-10-27 19:55:00,39.7,5.0,17.72,SW,225,0.0,0.0,23,0.00,,---,0.00,VWS V12.07,2013-10-27 23:55:00,
2013-10-27 20:00:00,39.4,4.7,17.72,SW,225,0.0,0.0,23,0.00,,---,0.00,VWS V12.07,2013-10-28 00:00:00,
2013-10-27 20:05:00,39.2,4.5,17.72,SW,225,0.0,0.0,23,0.00,,---,0.00,VWS V12.07,2013-10-28 00:05:00,
2013-10-27 20:10:00,38.7,5.0,17.72,SW,225,0.0,0.0,24,0.00,,---,0.00,VWS V12.07,2013-10-28 00:10:00,
2013-10-27 20:15:00,38.5,4.8,17.72,SW,225,0.0,0.0,24,0.00,,---,0.00,VWS V12.07,2013-10-28 00:15:00,
2013-10-27 20:20:00,38.3,4.7,17.72,SW,225,0.0,0.0,24,0.00,,---,0.00,VWS V12.07,2013-10-28 00:20:00,
2013-10-27 20:25:00,38.1,4.5,17.72,SW,225,0.0,0.0,24,0.00,,---,0.00,VWS V12.07,2013-10-28 00:25:00,
2013-10-27 20:30:00,37.9,4.4,17.72,SW,225,0.0,0.0,24,0.00,,---,0.00,VWS V12.07,2013-10-28 00:30:00,
2013-10-27 20:35:00,37.6,4.1,17.72,SW,225,0.0,0.0,24,0.00,,---,0.00,VWS V12.07,2013-10-28 00:35:00,
2013-10-27 20:40:00,37.4,3.9,17.72,SW,225,0.0,0.0,24,0.00,,---,0.00,VWS V12.07,2013-10-28 00:40:00,
2013-10-27 20:45:00,36.9,3.5,17.72,SW,225,0.0,0.0,24,0.00,,---,0.00,VWS V12.07,2013-10-28 00:45:00,
2013-10-27 20:50:00,36.5,3.2,17.72,SW,225,0.0,0.0,24,0.00,,---,0.00,VWS V12.07,2013-10-28 00:50:00,
2013-10-27 20:55:00,36.3,3.0,17.72,SW,225,0.0,0.0,24,0.00,,---,0.00,VWS V12.07,2013-10-28 00:55:00,
2013-10-27 21:00:00,36.1,2.8,17.72,SW,225,0.0,0.0,24,0.00,,---,0.00,VWS V12.07,2013-10-28 01:00:00,
2013-10-27 21:05:00,36.0,2.7,17.72,SW,225,0.0,0.0,24,0.00,,---,0.00,VWS V12.07,2013-10-28 01:05:00,
2013-10-27 21:10:00,35.8,2.5,17.72,SW,225,0.0,0.0,24,0.00,,---,0.00,VWS V12.07,2013-10-28 01:10:00,
2013-10-27 21:15:00,35.8,2.5,17.72,SW,225,0.0,0.0,24,0.00,,---,0.00,VWS V12.07,2013-10-28 01:15:00,
2013-10-27 21:20:00,35.6,2.4,17.72,SW,225,0.0,0.0,24,0.00,,---,0.00,VWS V12.07,2013-10-28 01:20:00,
2013-10-27 21:25:00,35.4,3.1,17.72,SW,225,0.0,0.0,25,0.00,,---,0.00,VWS V12.07,2013-10-28 01:25:00,
2013-10-27 21:30:00,35.4,3.1,17.72,SW,225,0.0,0.0,25,0.00,,---,0.00,VWS V12.07,2013-10-28 01:30:00,
2013-10-27 21:35:00,35.2,3.0,17.72,SW,225,0.0,0.0,25,0.00,,---,0.00,VWS V12.07,2013-10-28 01:35:00,
2013-10-27 21:40:00,35.2,3.0,17.72,SW,225,0.0,0.0,25,0.00,,---,0.00,VWS V12.07,2013-10-28 01:40:00,
2013-10-27 21:45:00,35.1,2.8,17.72,SW,225,0.0,0.0,25,0.00,,---,0.00,VWS V12.07,2013-10-28 01:45:00,
2013-10-27 21:50:00,34.7,2.5,17.72,SW,225,0.0,0.0,25,0.00,,---,0.00,VWS V12.07,2013-10-28 01:50:00,
2013-10-27 21:55:00,34.3,2.2,17.72,SW,225,0.0,0.0,25,0.00,,---,0.00,VWS V12.07,2013-10-28 01:55:00,
2013-10-27 22:00:00,34.0,1.9,17.72,SW,225,0.0,0.0,25,0.00,,---,0.00,VWS V12.07,2013-10-28 02:00:00,
2013-10-27 22:05:00,34.0,1.9,17.72,SW,225,0.0,0.0,25,0.00,,---,0.00,VWS V12.07,2013-10-28 02:05:00,
2013-10-27 22:10:00,33.8,1.7,17.72,SW,225,0.0,0.0,25,0.00,,---,0.00,VWS V12.07,2013-10-28 02:10:00,
2013-10-27 22:15:00,33.8,1.7,17.72,SW,225,0.0,0.0,25,0.00,,---,0.00,VWS V12.07,2013-10-28 02:15:00,
2013-10-27 22:20:00,33.8,1.7,17.72,SW,225,0.0,0.0,25,0.00,,---,0.00,VWS V12.07,2013-10-28 02:20:00,
2013-10-27 22:25:00,33.8,1.7,17.72,SW,225,0.0,0.0,25,0.00,,---,0.00,VWS V12.07,2013-10-28 02:25:00,
2013-10-27 22:30:00,33.6,1.6,17.72,SW,225,0.0,0.0,25,0.00,,---,0.00,VWS V12.07,2013-10-28 02:30:00,
2013-10-27 22:35:00,33.6,1.6,17.72,SW,225,0.0,0.0,25,0.00,,---,0.00,VWS V12.07,2013-10-28 02:35:00,
2013-10-27 22:40:00,33.4,1.4,17.72,SW,225,0.0,0.0,25,0.00,,---,0.00,VWS V12.07,2013-10-28 02:40:00,
2013-10-27 22:45:00,33.3,1.2,17.72,SW,225,0.0,0.0,25,0.00,,---,0.00,VWS V12.07,2013-10-28 02:45:00,
2013-10-27 22:50:00,32.9,0.9,17.72,SW,225,0.0,0.0,25,0.00,,---,0.00,VWS V12.07,2013-10-28 02:50:00,
2013-10-27 22:55:00,32.7,0.8,17.72,SW,225,0.0,0.0,25,0.00,,---,0.00,VWS V12.07,2013-10-28 02:55:00,
2013-10-27 23:00:00,32.7,0.8,17.72,SW,225,0.0,0.0,25,0.00,,---,0.00,VWS V12.07,2013-10-28 03:00:00,
2013-10-27 23:05:00,32.7,0.8,17.72,SW,225,0.0,0.0,25,0.00,,---,0.00,VWS V12.07,2013-10-28 03:05:00,
2013-10-27 23:10:00,32.5,0.6,17.72,SW,225,0.0,0.0,25,0.00,,---,0.00,VWS V12.07,2013-10-28 03:10:00,
2013-10-27 23:15:00,32.4,0.5,17.72,SW,225,0.0,0.0,25,0.00,,---,0.00,VWS V12.07,2013-10-28 03:15:00,
2013-10-27 23:20:00,32.2,0.3,17.72,SW,225,0.0,0.0,25,0.00,,---,0.00,VWS V12.07,2013-10-28 03:20:00,
2013-10-27 23:25:00,32.2,0.3,17.72,SW,225,0.0,0.0,25,0.00,,---,0.00,VWS V12.07,2013-10-28 03:25:00,
2013-10-27 23:30:00,32.2,0.3,17.72,SW,225,0.0,0.0,25,0.00,,---,0.00,VWS V12.07,2013-10-28 03:30:00,
2013-10-27 23:35:00,32.2,0.3,17.72,SW,225,0.0,0.0,25,0.00,,---,0.00,VWS V12.07,2013-10-28 03:35:00,
2013-10-27 23:40:00,32.0,0.2,17.72,SW,225,0.0,0.0,25,0.00,,---,0.00,VWS V12.07,2013-10-28 03:40:00,
2013-10-27 23:45:00,32.0,0.2,17.72,SW,225,0.0,0.0,25,0.00,,---,0.00,VWS V12.07,2013-10-28 03:45:00,
2013-10-27 23:50:00,32.0,0.2,17.72,SW,225,0.0,0.0,25,0.00,,---,0.00,VWS V12.07,2013-10-28 03:50:00,
2013-10-27 23:55:00,32.0,0.2,17.72,SW,225,0.0,0.0,25,0.00,,---,0.00,VWS V12.07,2013-10-28 03:55:00,